sensor_id;sensor_type;location;lat;lon;timestamp;temperature;humidity
16929;DHT22;8581;47.334;11.190;2023-05-19T00:00:23;7.60;99.90
16929;DHT22;8581;47.334;11.190;2023-05-19T00:02:55;7.50;99.90
16929;DHT22;8581;47.334;11.190;2023-05-19T00:05:27;7.50;99.90
16929;DHT22;8581;47.334;11.190;2023-05-19T00:07:59;7.50;99.90
16929;DHT22;8581;47.334;11.190;2023-05-19T00:10:31;7.50;99.90
16929;DHT22;8581;47.334;11.190;2023-05-19T00:13:03;7.60;99.90
16929;DHT22;8581;47.334;11.190;2023-05-19T00:15:34;7.80;99.90
16929;DHT22;8581;47.334;11.190;2023-05-19T00:18:06;7.70;99.90
16929;DHT22;8581;47.334;11.190;2023-05-19T00:20:38;7.70;99.90
16929;DHT22;8581;47.334;11.190;2023-05-19T00:23:09;7.60;99.90
16929;DHT22;8581;47.334;11.190;2023-05-19T00:25:41;7.50;99.90
16929;DHT22;8581;47.334;11.190;2023-05-19T00:28:12;7.60;99.90
16929;DHT22;8581;47.334;11.190;2023-05-19T00:30:44;7.70;99.90
16929;DHT22;8581;47.334;11.190;2023-05-19T00:33:16;7.90;99.90
16929;DHT22;8581;47.334;11.190;2023-05-19T00:35:47;7.90;99.90
16929;DHT22;8581;47.334;11.190;2023-05-19T00:38:19;7.70;99.90
16929;DHT22;8581;47.334;11.190;2023-05-19T00:40:50;7.60;99.90
16929;DHT22;8581;47.334;11.190;2023-05-19T00:43:22;7.60;99.90
16929;DHT22;8581;47.334;11.190;2023-05-19T00:45:54;7.60;99.90
16929;DHT22;8581;47.334;11.190;2023-05-19T00:48:25;7.60;99.90
16929;DHT22;8581;47.334;11.190;2023-05-19T00:50:57;7.60;99.90
16929;DHT22;8581;47.334;11.190;2023-05-19T00:53:31;7.60;99.90
16929;DHT22;8581;47.334;11.190;2023-05-19T00:56:02;7.60;99.90
16929;DHT22;8581;47.334;11.190;2023-05-19T00:58:33;7.60;99.90
16929;DHT22;8581;47.334;11.190;2023-05-19T01:01:05;7.50;99.90
16929;DHT22;8581;47.334;11.190;2023-05-19T01:03:36;7.50;99.90
16929;DHT22;8581;47.334;11.190;2023-05-19T01:06:08;7.40;99.90
16929;DHT22;8581;47.334;11.190;2023-05-19T01:08:40;7.40;99.90
16929;DHT22;8581;47.334;11.190;2023-05-19T01:11:11;7.50;99.90
16929;DHT22;8581;47.334;11.190;2023-05-19T01:13:43;7.50;99.90
16929;DHT22;8581;47.334;11.190;2023-05-19T01:16:24;7.60;99.90
16929;DHT22;8581;47.334;11.190;2023-05-19T01:19:05;7.60;99.90
16929;DHT22;8581;47.334;11.190;2023-05-19T01:21:45;7.50;99.90
16929;DHT22;8581;47.334;11.190;2023-05-19T01:24:43;7.50;99.90
16929;DHT22;8581;47.334;11.190;2023-05-19T01:27:19;7.40;99.90
16929;DHT22;8581;47.334;11.190;2023-05-19T01:32:34;7.30;99.90
16929;DHT22;8581;47.334;11.190;2023-05-19T01:35:06;7.30;99.90
16929;DHT22;8581;47.334;11.190;2023-05-19T01:37:38;7.30;99.90
16929;DHT22;8581;47.334;11.190;2023-05-19T01:40:10;7.30;99.90
16929;DHT22;8581;47.334;11.190;2023-05-19T01:42:41;7.40;99.90
16929;DHT22;8581;47.334;11.190;2023-05-19T01:45:13;7.40;99.90
16929;DHT22;8581;47.334;11.190;2023-05-19T01:47:46;7.40;99.90
16929;DHT22;8581;47.334;11.190;2023-05-19T01:50:16;7.30;99.90
16929;DHT22;8581;47.334;11.190;2023-05-19T01:52:48;7.20;99.90
16929;DHT22;8581;47.334;11.190;2023-05-19T01:55:19;7.20;99.90
16929;DHT22;8581;47.334;11.190;2023-05-19T02:00:57;7.30;99.90
16929;DHT22;8581;47.334;11.190;2023-05-19T02:03:31;7.30;99.90
16929;DHT22;8581;47.334;11.190;2023-05-19T02:06:22;7.20;99.90
16929;DHT22;8581;47.334;11.190;2023-05-19T02:09:01;7.20;99.90
16929;DHT22;8581;47.334;11.190;2023-05-19T02:11:36;7.10;99.90
16929;DHT22;8581;47.334;11.190;2023-05-19T02:14:12;7.00;99.90
16929;DHT22;8581;47.334;11.190;2023-05-19T02:16:39;7.00;99.90
16929;DHT22;8581;47.334;11.190;2023-05-19T02:19:20;7.00;99.90
16929;DHT22;8581;47.334;11.190;2023-05-19T02:21:51;7.00;99.90
16929;DHT22;8581;47.334;11.190;2023-05-19T02:24:23;7.00;99.90
16929;DHT22;8581;47.334;11.190;2023-05-19T02:26:54;6.90;99.90
16929;DHT22;8581;47.334;11.190;2023-05-19T02:29:26;6.80;99.90
16929;DHT22;8581;47.334;11.190;2023-05-19T02:31:59;6.90;99.90
16929;DHT22;8581;47.334;11.190;2023-05-19T02:34:29;7.10;99.90
16929;DHT22;8581;47.334;11.190;2023-05-19T02:37:01;7.20;99.90
16929;DHT22;8581;47.334;11.190;2023-05-19T02:39:32;7.30;99.90
16929;DHT22;8581;47.334;11.190;2023-05-19T02:42:04;7.20;99.90
16929;DHT22;8581;47.334;11.190;2023-05-19T02:44:36;7.00;99.90
16929;DHT22;8581;47.334;11.190;2023-05-19T02:47:07;7.00;99.90
16929;DHT22;8581;47.334;11.190;2023-05-19T02:49:39;7.10;99.90
16929;DHT22;8581;47.334;11.190;2023-05-19T02:52:11;7.10;99.90
16929;DHT22;8581;47.334;11.190;2023-05-19T02:54:42;7.20;99.90
16929;DHT22;8581;47.334;11.190;2023-05-19T02:57:14;7.10;99.90
16929;DHT22;8581;47.334;11.190;2023-05-19T02:59:45;7.30;99.90
16929;DHT22;8581;47.334;11.190;2023-05-19T03:02:17;7.40;99.90
16929;DHT22;8581;47.334;11.190;2023-05-19T03:04:49;7.40;99.90
16929;DHT22;8581;47.334;11.190;2023-05-19T03:07:27;7.30;99.90
16929;DHT22;8581;47.334;11.190;2023-05-19T03:10:05;7.00;99.90
16929;DHT22;8581;47.334;11.190;2023-05-19T03:12:49;5.90;99.90
16929;DHT22;8581;47.334;11.190;2023-05-19T03:15:21;7.00;99.90
16929;DHT22;8581;47.334;11.190;2023-05-19T03:17:53;6.90;99.90
16929;DHT22;8581;47.334;11.190;2023-05-19T03:20:24;7.00;99.90
16929;DHT22;8581;47.334;11.190;2023-05-19T03:22:56;7.00;99.90
16929;DHT22;8581;47.334;11.190;2023-05-19T03:25:27;6.90;99.90
16929;DHT22;8581;47.334;11.190;2023-05-19T03:28:00;7.00;99.90
16929;DHT22;8581;47.334;11.190;2023-05-19T03:30:31;6.90;99.90
16929;DHT22;8581;47.334;11.190;2023-05-19T03:33:03;6.90;99.90
16929;DHT22;8581;47.334;11.190;2023-05-19T03:35:34;7.10;99.90
16929;DHT22;8581;47.334;11.190;2023-05-19T03:38:06;7.30;99.90
16929;DHT22;8581;47.334;11.190;2023-05-19T03:40:38;7.40;99.90
16929;DHT22;8581;47.334;11.190;2023-05-19T03:43:10;7.50;99.90
16929;DHT22;8581;47.334;11.190;2023-05-19T03:45:42;7.50;99.90
16929;DHT22;8581;47.334;11.190;2023-05-19T03:48:13;7.30;99.90
16929;DHT22;8581;47.334;11.190;2023-05-19T03:50:45;7.30;99.90
16929;DHT22;8581;47.334;11.190;2023-05-19T03:53:17;7.40;99.90
16929;DHT22;8581;47.334;11.190;2023-05-19T03:55:48;7.40;99.90
16929;DHT22;8581;47.334;11.190;2023-05-19T03:58:20;7.40;99.90
16929;DHT22;8581;47.334;11.190;2023-05-19T04:00:52;7.30;99.90
16929;DHT22;8581;47.334;11.190;2023-05-19T04:03:23;7.00;99.90
16929;DHT22;8581;47.334;11.190;2023-05-19T04:05:57;7.00;99.90
16929;DHT22;8581;47.334;11.190;2023-05-19T04:08:29;7.10;99.90
16929;DHT22;8581;47.334;11.190;2023-05-19T04:11:01;7.10;99.90
16929;DHT22;8581;47.334;11.190;2023-05-19T04:13:32;7.00;99.90
16929;DHT22;8581;47.334;11.190;2023-05-19T04:16:04;6.90;99.90
16929;DHT22;8581;47.334;11.190;2023-05-19T04:18:36;6.80;99.90
16929;DHT22;8581;47.334;11.190;2023-05-19T04:21:07;7.00;99.90
16929;DHT22;8581;47.334;11.190;2023-05-19T04:23:39;6.90;99.90
16929;DHT22;8581;47.334;11.190;2023-05-19T04:26:11;7.00;99.90
16929;DHT22;8581;47.334;11.190;2023-05-19T04:28:42;7.00;99.90
16929;DHT22;8581;47.334;11.190;2023-05-19T04:31:14;7.00;99.90
16929;DHT22;8581;47.334;11.190;2023-05-19T04:33:46;7.00;99.90
16929;DHT22;8581;47.334;11.190;2023-05-19T04:36:17;7.10;99.90
16929;DHT22;8581;47.334;11.190;2023-05-19T04:38:49;7.20;99.90
16929;DHT22;8581;47.334;11.190;2023-05-19T04:41:20;7.20;99.90
16929;DHT22;8581;47.334;11.190;2023-05-19T04:43:52;7.30;99.90
16929;DHT22;8581;47.334;11.190;2023-05-19T04:46:24;7.30;99.90
16929;DHT22;8581;47.334;11.190;2023-05-19T04:48:55;7.30;99.90
16929;DHT22;8581;47.334;11.190;2023-05-19T04:51:27;7.50;99.90
16929;DHT22;8581;47.334;11.190;2023-05-19T04:53:58;7.40;99.90
16929;DHT22;8581;47.334;11.190;2023-05-19T04:56:30;7.60;99.90
16929;DHT22;8581;47.334;11.190;2023-05-19T04:59:02;7.80;99.90
16929;DHT22;8581;47.334;11.190;2023-05-19T05:01:33;8.00;99.90
16929;DHT22;8581;47.334;11.190;2023-05-19T05:04:05;8.00;99.90
16929;DHT22;8581;47.334;11.190;2023-05-19T05:06:36;8.20;99.90
16929;DHT22;8581;47.334;11.190;2023-05-19T05:09:09;8.30;99.90
16929;DHT22;8581;47.334;11.190;2023-05-19T05:11:41;8.40;99.90
16929;DHT22;8581;47.334;11.190;2023-05-19T05:14:13;8.60;99.90
16929;DHT22;8581;47.334;11.190;2023-05-19T05:16:45;8.80;99.90
16929;DHT22;8581;47.334;11.190;2023-05-19T05:19:16;8.80;99.90
16929;DHT22;8581;47.334;11.190;2023-05-19T05:21:48;8.70;99.90
16929;DHT22;8581;47.334;11.190;2023-05-19T05:24:20;8.60;99.90
16929;DHT22;8581;47.334;11.190;2023-05-19T05:26:52;8.60;99.90
16929;DHT22;8581;47.334;11.190;2023-05-19T05:29:24;8.30;99.90
16929;DHT22;8581;47.334;11.190;2023-05-19T05:31:55;8.10;99.90
16929;DHT22;8581;47.334;11.190;2023-05-19T05:34:27;8.10;99.90
16929;DHT22;8581;47.334;11.190;2023-05-19T05:36:59;8.30;99.90
16929;DHT22;8581;47.334;11.190;2023-05-19T05:39:30;8.50;99.90
16929;DHT22;8581;47.334;11.190;2023-05-19T05:42:02;8.40;99.90
16929;DHT22;8581;47.334;11.190;2023-05-19T05:44:34;8.50;99.90
16929;DHT22;8581;47.334;11.190;2023-05-19T05:47:06;8.40;99.90
16929;DHT22;8581;47.334;11.190;2023-05-19T05:49:39;8.50;99.90
16929;DHT22;8581;47.334;11.190;2023-05-19T05:52:10;8.60;99.90
16929;DHT22;8581;47.334;11.190;2023-05-19T05:54:42;8.70;99.90
16929;DHT22;8581;47.334;11.190;2023-05-19T05:57:14;8.60;99.90
16929;DHT22;8581;47.334;11.190;2023-05-19T05:59:46;8.70;99.90
16929;DHT22;8581;47.334;11.190;2023-05-19T06:02:17;8.80;99.90
16929;DHT22;8581;47.334;11.190;2023-05-19T06:04:49;8.70;99.90
16929;DHT22;8581;47.334;11.190;2023-05-19T06:07:20;8.50;99.90
16929;DHT22;8581;47.334;11.190;2023-05-19T06:09:52;8.60;99.90
16929;DHT22;8581;47.334;11.190;2023-05-19T06:12:24;8.50;99.90
16929;DHT22;8581;47.334;11.190;2023-05-19T06:14:55;8.80;99.90
16929;DHT22;8581;47.334;11.190;2023-05-19T06:17:27;8.90;99.90
16929;DHT22;8581;47.334;11.190;2023-05-19T06:19:58;8.80;99.90
16929;DHT22;8581;47.334;11.190;2023-05-19T06:22:30;8.50;99.90
16929;DHT22;8581;47.334;11.190;2023-05-19T06:25:02;8.60;99.90
16929;DHT22;8581;47.334;11.190;2023-05-19T06:27:34;8.70;99.90
16929;DHT22;8581;47.334;11.190;2023-05-19T06:30:06;8.90;99.90
16929;DHT22;8581;47.334;11.190;2023-05-19T06:32:38;8.90;99.90
16929;DHT22;8581;47.334;11.190;2023-05-19T06:35:09;9.20;99.90
16929;DHT22;8581;47.334;11.190;2023-05-19T06:37:41;9.40;99.90
16929;DHT22;8581;47.334;11.190;2023-05-19T06:40:12;9.40;99.90
16929;DHT22;8581;47.334;11.190;2023-05-19T06:42:44;9.40;99.90
16929;DHT22;8581;47.334;11.190;2023-05-19T06:45:16;9.60;99.90
16929;DHT22;8581;47.334;11.190;2023-05-19T06:47:47;9.50;99.90
16929;DHT22;8581;47.334;11.190;2023-05-19T06:50:19;9.50;99.90
16929;DHT22;8581;47.334;11.190;2023-05-19T06:52:51;9.90;99.90
16929;DHT22;8581;47.334;11.190;2023-05-19T06:55:22;10.20;99.90
16929;DHT22;8581;47.334;11.190;2023-05-19T06:57:54;10.60;99.90
16929;DHT22;8581;47.334;11.190;2023-05-19T07:00:26;10.80;99.90
16929;DHT22;8581;47.334;11.190;2023-05-19T07:02:57;10.70;99.90
16929;DHT22;8581;47.334;11.190;2023-05-19T07:05:30;10.70;99.90
16929;DHT22;8581;47.334;11.190;2023-05-19T07:08:01;10.70;99.90
16929;DHT22;8581;47.334;11.190;2023-05-19T07:10:33;10.70;99.90
16929;DHT22;8581;47.334;11.190;2023-05-19T07:13:05;10.30;99.90
16929;DHT22;8581;47.334;11.190;2023-05-19T07:15:36;10.20;99.90
16929;DHT22;8581;47.334;11.190;2023-05-19T07:18:08;10.50;99.90
16929;DHT22;8581;47.334;11.190;2023-05-19T07:20:40;10.60;99.90
16929;DHT22;8581;47.334;11.190;2023-05-19T07:23:11;10.90;99.90
16929;DHT22;8581;47.334;11.190;2023-05-19T07:25:43;11.00;99.90
16929;DHT22;8581;47.334;11.190;2023-05-19T07:28:14;11.10;99.90
16929;DHT22;8581;47.334;11.190;2023-05-19T07:30:46;11.40;99.90
16929;DHT22;8581;47.334;11.190;2023-05-19T07:33:22;11.80;99.90
16929;DHT22;8581;47.334;11.190;2023-05-19T07:35:55;12.10;99.90
16929;DHT22;8581;47.334;11.190;2023-05-19T07:38:26;12.10;99.90
16929;DHT22;8581;47.334;11.190;2023-05-19T07:40:58;11.90;99.90
16929;DHT22;8581;47.334;11.190;2023-05-19T07:43:33;12.00;99.90
16929;DHT22;8581;47.334;11.190;2023-05-19T07:46:06;12.00;99.90
16929;DHT22;8581;47.334;11.190;2023-05-19T07:48:37;12.00;99.90
16929;DHT22;8581;47.334;11.190;2023-05-19T07:51:11;12.20;99.90
16929;DHT22;8581;47.334;11.190;2023-05-19T07:53:41;12.40;99.90
16929;DHT22;8581;47.334;11.190;2023-05-19T07:56:13;12.50;99.90
16929;DHT22;8581;47.334;11.190;2023-05-19T07:58:45;12.80;99.90
16929;DHT22;8581;47.334;11.190;2023-05-19T08:01:17;12.80;99.90
16929;DHT22;8581;47.334;11.190;2023-05-19T08:03:48;13.00;99.90
16929;DHT22;8581;47.334;11.190;2023-05-19T08:06:20;12.90;99.90
16929;DHT22;8581;47.334;11.190;2023-05-19T08:08:55;13.20;99.90
16929;DHT22;8581;47.334;11.190;2023-05-19T08:11:27;13.10;99.90
16929;DHT22;8581;47.334;11.190;2023-05-19T08:13:59;12.90;99.90
16929;DHT22;8581;47.334;11.190;2023-05-19T08:16:30;13.00;99.90
16929;DHT22;8581;47.334;11.190;2023-05-19T08:19:02;13.30;99.90
16929;DHT22;8581;47.334;11.190;2023-05-19T08:21:34;13.60;99.90
16929;DHT22;8581;47.334;11.190;2023-05-19T08:24:05;13.70;99.90
16929;DHT22;8581;47.334;11.190;2023-05-19T08:26:37;14.00;99.90
16929;DHT22;8581;47.334;11.190;2023-05-19T08:29:08;14.00;99.90
16929;DHT22;8581;47.334;11.190;2023-05-19T08:31:40;13.90;99.90
16929;DHT22;8581;47.334;11.190;2023-05-19T08:34:12;14.20;99.90
16929;DHT22;8581;47.334;11.190;2023-05-19T08:36:43;14.50;99.90
16929;DHT22;8581;47.334;11.190;2023-05-19T08:39:15;14.70;99.90
16929;DHT22;8581;47.334;11.190;2023-05-19T08:41:46;14.50;99.90
16929;DHT22;8581;47.334;11.190;2023-05-19T08:44:18;14.20;99.90
16929;DHT22;8581;47.334;11.190;2023-05-19T08:46:50;14.00;99.90
16929;DHT22;8581;47.334;11.190;2023-05-19T08:49:22;13.50;99.90
16929;DHT22;8581;47.334;11.190;2023-05-19T08:54:35;12.50;99.90
16929;DHT22;8581;47.334;11.190;2023-05-19T08:57:04;12.60;99.90
16929;DHT22;8581;47.334;11.190;2023-05-19T08:59:36;12.60;99.90
16929;DHT22;8581;47.334;11.190;2023-05-19T09:02:07;12.80;99.90
16929;DHT22;8581;47.334;11.190;2023-05-19T09:04:39;12.80;99.90
16929;DHT22;8581;47.334;11.190;2023-05-19T09:07:12;12.70;99.90
16929;DHT22;8581;47.334;11.190;2023-05-19T09:09:42;13.20;99.90
16929;DHT22;8581;47.334;11.190;2023-05-19T09:12:14;13.20;99.90
16929;DHT22;8581;47.334;11.190;2023-05-19T09:14:46;13.50;99.90
16929;DHT22;8581;47.334;11.190;2023-05-19T09:17:17;14.10;99.90
16929;DHT22;8581;47.334;11.190;2023-05-19T09:19:49;14.80;99.90
16929;DHT22;8581;47.334;11.190;2023-05-19T09:22:21;15.30;99.90
16929;DHT22;8581;47.334;11.190;2023-05-19T09:24:52;16.00;99.90
16929;DHT22;8581;47.334;11.190;2023-05-19T09:27:24;16.10;99.90
16929;DHT22;8581;47.334;11.190;2023-05-19T09:29:57;16.10;99.90
16929;DHT22;8581;47.334;11.190;2023-05-19T09:32:27;16.50;99.90
16929;DHT22;8581;47.334;11.190;2023-05-19T09:34:59;16.40;99.90
16929;DHT22;8581;47.334;11.190;2023-05-19T09:37:31;16.60;99.90
16929;DHT22;8581;47.334;11.190;2023-05-19T09:40:03;17.10;99.90
16929;DHT22;8581;47.334;11.190;2023-05-19T09:42:37;17.50;99.90
16929;DHT22;8581;47.334;11.190;2023-05-19T09:45:08;17.80;99.90
16929;DHT22;8581;47.334;11.190;2023-05-19T09:47:40;17.80;99.90
16929;DHT22;8581;47.334;11.190;2023-05-19T09:50:12;17.80;99.90
16929;DHT22;8581;47.334;11.190;2023-05-19T09:52:43;17.90;99.90
16929;DHT22;8581;47.334;11.190;2023-05-19T09:55:15;18.40;99.90
16929;DHT22;8581;47.334;11.190;2023-05-19T09:57:46;18.20;99.90
16929;DHT22;8581;47.334;11.190;2023-05-19T10:00:18;17.90;99.90
16929;DHT22;8581;47.334;11.190;2023-05-19T10:02:50;18.60;99.90
16929;DHT22;8581;47.334;11.190;2023-05-19T10:05:22;18.60;99.90
16929;DHT22;8581;47.334;11.190;2023-05-19T10:07:53;18.60;99.90
16929;DHT22;8581;47.334;11.190;2023-05-19T10:10:25;19.00;99.90
16929;DHT22;8581;47.334;11.190;2023-05-19T10:12:57;19.30;99.90
16929;DHT22;8581;47.334;11.190;2023-05-19T10:15:28;19.30;99.90
16929;DHT22;8581;47.334;11.190;2023-05-19T10:18:00;20.20;99.90
16929;DHT22;8581;47.334;11.190;2023-05-19T10:20:31;19.80;99.90
16929;DHT22;8581;47.334;11.190;2023-05-19T10:23:03;19.60;99.90
16929;DHT22;8581;47.334;11.190;2023-05-19T10:25:35;19.80;99.90
16929;DHT22;8581;47.334;11.190;2023-05-19T10:28:08;19.70;99.90
16929;DHT22;8581;47.334;11.190;2023-05-19T10:30:40;19.80;99.90
16929;DHT22;8581;47.334;11.190;2023-05-19T10:33:14;20.00;99.90
16929;DHT22;8581;47.334;11.190;2023-05-19T10:38:39;19.70;99.90
16929;DHT22;8581;47.334;11.190;2023-05-19T10:41:15;19.20;99.90
16929;DHT22;8581;47.334;11.190;2023-05-19T10:43:55;19.50;99.90
16929;DHT22;8581;47.334;11.190;2023-05-19T10:46:25;20.40;99.90
16929;DHT22;8581;47.334;11.190;2023-05-19T10:48:59;21.00;99.90
16929;DHT22;8581;47.334;11.190;2023-05-19T10:51:31;21.40;99.90
16929;DHT22;8581;47.334;11.190;2023-05-19T10:54:02;21.60;99.90
16929;DHT22;8581;47.334;11.190;2023-05-19T10:56:35;22.60;99.90
16929;DHT22;8581;47.334;11.190;2023-05-19T10:59:06;22.50;99.90
16929;DHT22;8581;47.334;11.190;2023-05-19T11:01:37;23.20;99.90
16929;DHT22;8581;47.334;11.190;2023-05-19T11:04:09;23.20;99.90
16929;DHT22;8581;47.334;11.190;2023-05-19T11:06:42;23.50;99.90
16929;DHT22;8581;47.334;11.190;2023-05-19T11:09:14;23.10;99.90
16929;DHT22;8581;47.334;11.190;2023-05-19T11:11:48;23.40;99.90
16929;DHT22;8581;47.334;11.190;2023-05-19T11:14:20;23.40;99.90
16929;DHT22;8581;47.334;11.190;2023-05-19T11:16:56;23.10;99.90
16929;DHT22;8581;47.334;11.190;2023-05-19T11:19:27;22.20;99.90
16929;DHT22;8581;47.334;11.190;2023-05-19T11:22:14;22.50;99.90
16929;DHT22;8581;47.334;11.190;2023-05-19T11:24:45;23.10;99.90
16929;DHT22;8581;47.334;11.190;2023-05-19T11:27:25;23.90;99.90
16929;DHT22;8581;47.334;11.190;2023-05-19T11:29:59;25.60;99.90
16929;DHT22;8581;47.334;11.190;2023-05-19T11:32:31;25.40;99.90
16929;DHT22;8581;47.334;11.190;2023-05-19T11:35:05;26.80;99.40
16929;DHT22;8581;47.334;11.190;2023-05-19T11:37:37;27.20;99.00
16929;DHT22;8581;47.334;11.190;2023-05-19T11:40:09;27.00;97.40
16929;DHT22;8581;47.334;11.190;2023-05-19T11:42:40;27.50;97.90
16929;DHT22;8581;47.334;11.190;2023-05-19T11:45:12;28.10;97.30
16929;DHT22;8581;47.334;11.190;2023-05-19T11:47:44;28.00;95.40
16929;DHT22;8581;47.334;11.190;2023-05-19T11:50:15;27.00;96.50
16929;DHT22;8581;47.334;11.190;2023-05-19T11:52:47;26.40;97.00
16929;DHT22;8581;47.334;11.190;2023-05-19T11:55:19;26.80;96.00
16929;DHT22;8581;47.334;11.190;2023-05-19T11:57:55;27.20;95.50
16929;DHT22;8581;47.334;11.190;2023-05-19T12:00:28;26.00;96.40
16929;DHT22;8581;47.334;11.190;2023-05-19T12:03:00;25.20;97.80
16929;DHT22;8581;47.334;11.190;2023-05-19T12:05:31;25.50;96.10
16929;DHT22;8581;47.334;11.190;2023-05-19T12:08:03;25.90;96.70
16929;DHT22;8581;47.334;11.190;2023-05-19T12:10:35;26.60;96.00
16929;DHT22;8581;47.334;11.190;2023-05-19T12:13:06;28.00;96.50
16929;DHT22;8581;47.334;11.190;2023-05-19T12:15:38;28.40;94.10
16929;DHT22;8581;47.334;11.190;2023-05-19T12:18:09;28.30;94.80
16929;DHT22;8581;47.334;11.190;2023-05-19T12:20:41;28.00;95.00
16929;DHT22;8581;47.334;11.190;2023-05-19T12:23:13;26.10;97.20
16929;DHT22;8581;47.334;11.190;2023-05-19T12:25:44;25.90;98.30
16929;DHT22;8581;47.334;11.190;2023-05-19T12:28:16;26.20;96.90
16929;DHT22;8581;47.334;11.190;2023-05-19T12:30:49;26.10;96.90
16929;DHT22;8581;47.334;11.190;2023-05-19T12:33:20;25.30;98.60
16929;DHT22;8581;47.334;11.190;2023-05-19T12:35:53;25.30;97.10
16929;DHT22;8581;47.334;11.190;2023-05-19T12:38:25;25.00;96.60
16929;DHT22;8581;47.334;11.190;2023-05-19T12:40:58;25.20;96.60
16929;DHT22;8581;47.334;11.190;2023-05-19T12:43:30;25.70;97.40
16929;DHT22;8581;47.334;11.190;2023-05-19T12:46:10;25.50;98.00
16929;DHT22;8581;47.334;11.190;2023-05-19T12:48:42;25.80;98.60
16929;DHT22;8581;47.334;11.190;2023-05-19T12:51:18;24.90;99.30
16929;DHT22;8581;47.334;11.190;2023-05-19T12:53:49;25.50;99.20
16929;DHT22;8581;47.334;11.190;2023-05-19T12:56:23;26.20;98.10
16929;DHT22;8581;47.334;11.190;2023-05-19T12:58:53;26.70;98.10
16929;DHT22;8581;47.334;11.190;2023-05-19T13:01:24;26.40;97.80
16929;DHT22;8581;47.334;11.190;2023-05-19T13:03:56;27.00;96.80
16929;DHT22;8581;47.334;11.190;2023-05-19T13:06:28;25.90;97.40
16929;DHT22;8581;47.334;11.190;2023-05-19T13:08:59;26.50;97.20
16929;DHT22;8581;47.334;11.190;2023-05-19T13:11:31;25.80;97.50
16929;DHT22;8581;47.334;11.190;2023-05-19T13:14:03;25.30;98.50
16929;DHT22;8581;47.334;11.190;2023-05-19T13:16:34;25.70;98.20
16929;DHT22;8581;47.334;11.190;2023-05-19T13:19:06;25.10;97.90
16929;DHT22;8581;47.334;11.190;2023-05-19T13:21:37;25.40;98.50
16929;DHT22;8581;47.334;11.190;2023-05-19T13:24:09;25.40;98.60
16929;DHT22;8581;47.334;11.190;2023-05-19T13:26:41;26.10;97.90
16929;DHT22;8581;47.334;11.190;2023-05-19T13:29:12;26.80;97.50
16929;DHT22;8581;47.334;11.190;2023-05-19T13:31:44;26.00;97.80
16929;DHT22;8581;47.334;11.190;2023-05-19T13:34:15;25.80;98.70
16929;DHT22;8581;47.334;11.190;2023-05-19T13:36:47;27.30;96.70
16929;DHT22;8581;47.334;11.190;2023-05-19T13:39:19;26.80;96.70
16929;DHT22;8581;47.334;11.190;2023-05-19T13:41:50;25.60;97.90
16929;DHT22;8581;47.334;11.190;2023-05-19T13:44:22;25.10;97.50
16929;DHT22;8581;47.334;11.190;2023-05-19T13:46:54;25.90;97.80
16929;DHT22;8581;47.334;11.190;2023-05-19T13:49:25;26.00;97.70
16929;DHT22;8581;47.334;11.190;2023-05-19T13:51:57;25.70;97.40
16929;DHT22;8581;47.334;11.190;2023-05-19T13:54:28;26.10;97.30
16929;DHT22;8581;47.334;11.190;2023-05-19T13:57:00;26.00;96.80
16929;DHT22;8581;47.334;11.190;2023-05-19T13:59:32;25.60;97.90
16929;DHT22;8581;47.334;11.190;2023-05-19T14:02:03;25.10;98.20
16929;DHT22;8581;47.334;11.190;2023-05-19T14:04:36;25.30;97.80
16929;DHT22;8581;47.334;11.190;2023-05-19T14:07:08;25.70;98.20
16929;DHT22;8581;47.334;11.190;2023-05-19T14:09:40;25.60;97.60
16929;DHT22;8581;47.334;11.190;2023-05-19T14:12:11;25.70;97.30
16929;DHT22;8581;47.334;11.190;2023-05-19T14:14:43;25.90;97.30
16929;DHT22;8581;47.334;11.190;2023-05-19T14:17:14;25.90;97.50
16929;DHT22;8581;47.334;11.190;2023-05-19T14:19:46;25.80;97.20
16929;DHT22;8581;47.334;11.190;2023-05-19T14:22:18;26.00;96.40
16929;DHT22;8581;47.334;11.190;2023-05-19T14:24:49;25.00;97.80
16929;DHT22;8581;47.334;11.190;2023-05-19T14:27:21;25.20;97.30
16929;DHT22;8581;47.334;11.190;2023-05-19T14:29:52;24.90;98.60
16929;DHT22;8581;47.334;11.190;2023-05-19T14:32:24;25.20;97.20
16929;DHT22;8581;47.334;11.190;2023-05-19T14:34:56;24.70;97.80
16929;DHT22;8581;47.334;11.190;2023-05-19T14:37:27;23.90;98.90
16929;DHT22;8581;47.334;11.190;2023-05-19T14:39:59;24.20;97.80
16929;DHT22;8581;47.334;11.190;2023-05-19T14:42:30;23.40;98.40
16929;DHT22;8581;47.334;11.190;2023-05-19T14:45:02;24.70;98.80
16929;DHT22;8581;47.334;11.190;2023-05-19T14:47:34;25.30;97.50
16929;DHT22;8581;47.334;11.190;2023-05-19T14:50:06;25.20;97.40
16929;DHT22;8581;47.334;11.190;2023-05-19T14:52:37;23.40;98.70
16929;DHT22;8581;47.334;11.190;2023-05-19T14:55:09;22.40;99.90
16929;DHT22;8581;47.334;11.190;2023-05-19T14:57:40;22.50;99.90
16929;DHT22;8581;47.334;11.190;2023-05-19T15:00:12;22.60;99.90
16929;DHT22;8581;47.334;11.190;2023-05-19T15:02:44;22.30;99.90
16929;DHT22;8581;47.334;11.190;2023-05-19T15:05:16;21.80;99.90
16929;DHT22;8581;47.334;11.190;2023-05-19T15:07:47;22.90;99.90
16929;DHT22;8581;47.334;11.190;2023-05-19T15:10:19;23.90;99.50
16929;DHT22;8581;47.334;11.190;2023-05-19T15:12:51;25.60;97.10
16929;DHT22;8581;47.334;11.190;2023-05-19T15:15:22;26.60;97.00
16929;DHT22;8581;47.334;11.190;2023-05-19T15:17:54;27.50;95.00
16929;DHT22;8581;47.334;11.190;2023-05-19T15:20:26;25.60;96.50
16929;DHT22;8581;47.334;11.190;2023-05-19T15:22:57;24.20;97.50
16929;DHT22;8581;47.334;11.190;2023-05-19T15:25:29;23.00;98.90
16929;DHT22;8581;47.334;11.190;2023-05-19T15:28:00;21.80;99.90
16929;DHT22;8581;47.334;11.190;2023-05-19T15:30:32;20.90;99.90
16929;DHT22;8581;47.334;11.190;2023-05-19T15:33:04;20.00;99.90
16929;DHT22;8581;47.334;11.190;2023-05-19T15:35:35;19.20;99.90
16929;DHT22;8581;47.334;11.190;2023-05-19T15:38:07;19.00;99.90
16929;DHT22;8581;47.334;11.190;2023-05-19T15:40:40;18.80;99.90
16929;DHT22;8581;47.334;11.190;2023-05-19T15:43:10;18.70;99.90
16929;DHT22;8581;47.334;11.190;2023-05-19T15:45:42;19.20;99.90
16929;DHT22;8581;47.334;11.190;2023-05-19T15:48:13;19.80;99.90
16929;DHT22;8581;47.334;11.190;2023-05-19T15:50:45;21.90;99.90
16929;DHT22;8581;47.334;11.190;2023-05-19T15:53:16;23.20;99.90
16929;DHT22;8581;47.334;11.190;2023-05-19T15:55:48;24.40;99.60
16929;DHT22;8581;47.334;11.190;2023-05-19T15:58:20;24.60;97.90
16929;DHT22;8581;47.334;11.190;2023-05-19T16:00:51;24.90;98.20
16929;DHT22;8581;47.334;11.190;2023-05-19T16:03:23;25.10;97.60
16929;DHT22;8581;47.334;11.190;2023-05-19T16:05:54;24.20;98.40
16929;DHT22;8581;47.334;11.190;2023-05-19T16:08:26;24.30;98.10
16929;DHT22;8581;47.334;11.190;2023-05-19T16:10:58;23.70;98.30
16929;DHT22;8581;47.334;11.190;2023-05-19T16:13:29;22.60;99.70
16929;DHT22;8581;47.334;11.190;2023-05-19T16:16:01;22.10;99.90
16929;DHT22;8581;47.334;11.190;2023-05-19T16:18:33;20.10;99.90